Time;durP1;ratioP1;P1;durP2;ratioP2;P2;SDS_P1;SDS_P2;PMS_P1;PMS_P2;Temp;Humidity;BMP_temperature;BMP_pressure;BME280_temperature;BME280_humidity;BME280_pressure;Samples;Min_cycle;Max_cycle;Signal;HPM_P1;HPM_P2
2021/12/26 00:01:04;;;;;;;14.00;13.60;;;19.30;49.10;;;;;;5014640;28;20954;-45
2021/12/26 00:03:32;;;;;;;14.70;14.20;;;19.30;49.20;;;;;;5014383;28;20449;-44
2021/12/26 00:06:03;;;;;;;14.50;14.10;;;19.30;49.30;;;;;;5014338;28;20545;-44
2021/12/26 00:08:30;;;;;;;14.10;13.70;;;19.20;49.30;;;;;;5014312;28;20454;-47
2021/12/26 00:10:56;;;;;;;14.50;14.10;;;19.20;49.40;;;;;;5014578;28;20795;-44
2021/12/26 00:13:23;;;;;;;14.53;14.13;;;19.10;49.50;;;;;;5014267;28;20453;-45
2021/12/26 00:15:51;;;;;;;15.07;14.57;;;19.10;49.60;;;;;;5014404;28;20480;-44
2021/12/26 00:18:19;;;;;;;14.80;14.30;;;19.10;49.70;;;;;;5014293;28;20450;-44
2021/12/26 00:20:47;;;;;;;14.30;13.90;;;19.00;49.80;;;;;;5014091;28;20453;-45
2021/12/26 00:23:14;;;;;;;15.37;14.87;;;19.00;49.90;;;;;;5014198;28;20544;-45
2021/12/26 00:25:41;;;;;;;14.27;13.87;;;19.00;50.00;;;;;;5014137;28;20466;-45
2021/12/26 00:28:08;;;;;;;15.50;14.90;;;18.90;50.00;;;;;;5014243;28;20457;-45
2021/12/26 00:30:35;;;;;;;14.33;13.93;;;18.90;50.10;;;;;;5014128;28;20877;-44
2021/12/26 00:33:03;;;;;;;14.07;13.67;;;18.90;50.20;;;;;;5013684;28;20469;-44
2021/12/26 00:35:30;;;;;;;14.73;14.23;;;18.90;50.30;;;;;;5013846;28;20482;-44
2021/12/26 00:37:57;;;;;;;15.27;14.73;;;18.80;50.20;;;;;;5014017;28;20453;-44
2021/12/26 00:40:27;;;;;;;14.97;14.47;;;18.80;50.40;;;;;;5013929;28;20454;-45
2021/12/26 00:42:55;;;;;;;14.60;14.20;;;18.80;50.50;;;;;;5013676;28;20551;-44
2021/12/26 00:45:22;;;;;;;14.90;14.40;;;18.70;50.50;;;;;;5013468;28;20466;-45
2021/12/26 00:47:49;;;;;;;15.70;15.30;;;18.70;50.70;;;;;;5013782;28;20446;-45
2021/12/26 00:50:19;;;;;;;14.53;14.13;;;18.70;50.80;;;;;;5013743;28;20450;-44
2021/12/26 00:52:45;;;;;;;15.10;14.60;;;18.60;50.80;;;;;;5013032;28;20940;-45
2021/12/26 00:55:14;;;;;;;14.80;14.40;;;18.60;50.90;;;;;;5013560;28;20979;-44
2021/12/26 00:57:41;;;;;;;15.27;14.87;;;18.60;51.00;;;;;;5013584;28;20446;-44
2021/12/26 01:00:12;;;;;;;15.00;14.50;;;18.50;51.00;;;;;;5013613;28;20446;-44
2021/12/26 01:02:39;;;;;;;14.30;13.90;;;18.50;51.20;;;;;;5013007;28;20817;-44
2021/12/26 01:05:08;;;;;;;14.63;14.13;;;18.50;51.30;;;;;;5013251;28;20474;-44
2021/12/26 01:07:45;;;;;;;14.43;14.03;;;18.50;51.40;;;;;;5013484;28;20446;-45
2021/12/26 01:10:14;;;;;;;14.50;14.10;;;18.50;51.50;;;;;;5013459;28;20457;-44
2021/12/26 01:12:41;;;;;;;14.67;14.27;;;18.50;51.60;;;;;;5013105;28;20454;-44
2021/12/26 01:15:10;;;;;;;14.37;13.97;;;18.40;51.70;;;;;;5012965;28;20492;-44
2021/12/26 01:17:39;;;;;;;14.80;14.20;;;18.40;51.70;;;;;;5013145;28;20884;-45
2021/12/26 01:20:09;;;;;;;14.53;14.10;;;18.30;51.80;;;;;;5013382;28;20454;-44
2021/12/26 01:22:38;;;;;;;14.87;14.37;;;18.40;51.90;;;;;;5012964;28;20504;-45
2021/12/26 01:25:06;;;;;;;14.90;14.40;;;18.40;52.00;;;;;;5013057;28;20893;-44
2021/12/26 01:27:33;;;;;;;14.70;14.30;;;18.30;52.00;;;;;;5012676;28;20465;-45
2021/12/26 01:30:00;;;;;;;14.30;13.90;;;18.30;52.20;;;;;;5013055;28;20453;-44
2021/12/26 01:32:27;;;;;;;14.23;13.83;;;18.30;52.20;;;;;;5012742;28;20910;-45
2021/12/26 01:34:54;;;;;;;14.43;14.03;;;18.20;52.30;;;;;;5012733;28;20493;-44
2021/12/26 01:37:21;;;;;;;14.40;14.00;;;18.20;52.40;;;;;;5012655;28;20955;-45
2021/12/26 01:39:49;;;;;;;13.93;13.53;;;18.20;52.50;;;;;;4993337;28;20454;-44
2021/12/26 01:42:16;;;;;;;14.63;14.17;;;18.10;52.50;;;;;;4993045;28;20451;-45
2021/12/26 01:44:42;;;;;;;14.60;14.13;;;18.10;52.60;;;;;;4993109;28;20801;-44
2021/12/26 01:47:10;;;;;;;14.37;13.93;;;18.10;52.60;;;;;;5005349;28;20450;-44
2021/12/26 01:49:37;;;;;;;14.77;14.33;;;18.10;52.60;;;;;;5012699;28;20449;-44
2021/12/26 01:52:06;;;;;;;14.80;14.30;;;18.10;52.70;;;;;;5012538;28;20823;-45
2021/12/26 01:54:38;;;;;;;14.50;14.00;;;18.10;52.90;;;;;;5012542;28;21006;-44
2021/12/26 01:57:10;;;;;;;14.90;14.40;;;18.10;53.10;;;;;;5012574;28;20453;-44
2021/12/26 01:59:38;;;;;;;14.77;14.27;;;18.00;53.10;;;;;;5012641;28;20450;-44
2021/12/26 02:02:05;;;;;;;14.70;14.20;;;18.00;53.20;;;;;;5012462;28;20450;-44
2021/12/26 02:04:32;;;;;;;14.47;14.03;;;18.00;53.20;;;;;;5011828;28;20449;-45
2021/12/26 02:07:01;;;;;;;14.27;13.87;;;18.00;53.20;;;;;;5012732;28;20454;-44
2021/12/26 02:09:28;;;;;;;15.13;14.63;;;17.90;53.30;;;;;;5012147;28;20453;-43
2021/12/26 02:11:54;;;;;;;13.83;13.43;;;18.00;53.30;;;;;;5011989;28;20454;-44
2021/12/26 02:14:22;;;;;;;14.40;14.00;;;18.00;53.40;;;;;;5012275;28;20482;-43
2021/12/26 02:16:49;;;;;;;14.70;14.30;;;17.90;53.30;;;;;;5012282;28;20470;-43
2021/12/26 02:19:16;;;;;;;14.50;14.00;;;17.90;53.40;;;;;;5012188;28;20820;-44
2021/12/26 02:22:00;;;;;;;14.30;13.90;;;17.90;53.60;;;;;;5011976;28;20438;-43
2021/12/26 02:24:32;;;;;;;14.50;14.10;;;17.80;53.60;;;;;;5012211;28;20446;-43
2021/12/26 02:29:44;;;;;;;14.70;14.27;;;17.80;53.80;;;;;;5012014;28;20429;-43
2021/12/26 02:32:11;;;;;;;14.40;14.00;;;17.80;54.00;;;;;;5011874;28;20438;-43
2021/12/26 02:34:38;;;;;;;14.50;14.10;;;17.80;54.00;;;;;;5011847;28;20883;-43
2021/12/26 02:37:07;;;;;;;14.83;14.33;;;17.80;54.00;;;;;;5011943;28;20446;-43
2021/12/26 02:39:35;;;;;;;15.03;14.53;;;17.80;54.00;;;;;;5011740;28;20457;-43
2021/12/26 02:42:02;;;;;;;14.47;14.07;;;17.80;54.00;;;;;;5011445;28;20545;-43
2021/12/26 02:44:29;;;;;;;14.30;13.90;;;17.70;54.10;;;;;;5011842;28;20478;-43
2021/12/26 02:46:55;;;;;;;14.80;14.40;;;17.70;54.30;;;;;;5011770;28;20466;-43
2021/12/26 02:49:23;;;;;;;14.73;14.23;;;17.70;54.30;;;;;;5011652;28;20797;-43
2021/12/26 02:51:50;;;;;;;14.27;13.87;;;17.60;54.40;;;;;;4992182;28;20911;-43
2021/12/26 02:54:19;;;;;;;14.80;14.30;;;17.60;54.40;;;;;;5002660;28;20865;-43
2021/12/26 02:56:46;;;;;;;14.60;14.10;;;17.60;54.40;;;;;;5011692;28;20477;-44
2021/12/26 02:59:13;;;;;;;14.43;14.03;;;17.60;54.70;;;;;;5011646;28;20446;-43
2021/12/26 03:01:39;;;;;;;14.20;13.80;;;17.60;54.90;;;;;;5011238;28;20450;-44
2021/12/26 03:04:08;;;;;;;14.07;13.67;;;17.60;54.90;;;;;;5011682;28;20477;-43
2021/12/26 03:06:42;;;;;;;14.83;14.40;;;17.60;54.90;;;;;;5011490;28;20474;-43
2021/12/26 03:09:08;;;;;;;15.00;14.60;;;17.60;54.90;;;;;;5011807;28;21136;-43
2021/12/26 03:11:38;;;;;;;14.73;14.33;;;17.60;55.00;;;;;;5011481;28;20962;-43
2021/12/26 03:14:05;;;;;;;14.97;14.57;;;17.50;55.10;;;;;;5011340;28;20450;-43
2021/12/26 03:16:32;;;;;;;14.67;14.27;;;17.50;55.10;;;;;;5015318;28;20489;-44
2021/12/26 03:19:00;;;;;;;14.33;13.83;;;17.50;55.30;;;;;;5015468;28;20453;-43
2021/12/26 03:21:28;;;;;;;14.90;14.40;;;17.50;55.50;;;;;;5015259;28;20445;-43
2021/12/26 03:23:55;;;;;;;14.80;14.30;;;17.50;55.50;;;;;;5015405;28;20990;-43
2021/12/26 03:26:22;;;;;;;14.37;13.97;;;17.50;56.10;;;;;;5015225;28;20473;-43
2021/12/26 03:28:50;;;;;;;14.40;14.00;;;17.40;55.60;;;;;;5015467;28;20454;-43
2021/12/26 03:31:16;;;;;;;14.57;14.13;;;17.40;55.60;;;;;;5015248;28;20449;-44
2021/12/26 03:33:43;;;;;;;14.47;14.07;;;17.40;55.60;;;;;;5015114;28;20461;-43
2021/12/26 03:36:10;;;;;;;14.57;14.17;;;17.40;55.70;;;;;;5015078;28;21067;-43
2021/12/26 03:38:37;;;;;;;14.30;13.90;;;17.40;55.80;;;;;;5014881;28;20457;-43
2021/12/26 03:41:04;;;;;;;14.67;14.27;;;17.40;55.90;;;;;;5015077;28;20959;-43
2021/12/26 03:43:31;;;;;;;14.47;13.97;;;17.30;55.90;;;;;;5014652;28;20457;-43
2021/12/26 03:46:01;;;;;;;14.53;14.13;;;17.30;56.10;;;;;;5014956;28;20855;-43
2021/12/26 03:48:28;;;;;;;14.40;14.00;;;17.30;56.20;;;;;;5015057;28;20638;-43
2021/12/26 03:50:57;;;;;;;13.90;13.50;;;17.30;56.20;;;;;;5014674;28;20458;-43
2021/12/26 03:53:24;;;;;;;14.37;13.97;;;17.30;56.20;;;;;;5014679;28;20457;-44
2021/12/26 03:55:51;;;;;;;14.97;14.40;;;17.30;56.40;;;;;;5014676;28;20915;-43
2021/12/26 03:58:18;;;;;;;14.73;14.27;;;17.30;56.40;;;;;;5014693;28;20446;-44
2021/12/26 04:00:47;;;;;;;15.03;14.53;;;17.20;56.50;;;;;;5014743;28;20445;-43
2021/12/26 04:03:15;;;;;;;15.00;14.40;;;17.20;56.70;;;;;;5014164;28;20852;-43
2021/12/26 04:05:42;;;;;;;15.10;14.60;;;17.30;56.80;;;;;;5014511;28;20485;-43
2021/12/26 04:08:09;;;;;;;14.73;14.33;;;17.30;56.90;;;;;;5014631;28;20452;-43
2021/12/26 04:10:35;;;;;;;15.30;14.80;;;17.20;57.00;;;;;;5014543;28;20450;-43
2021/12/26 04:13:02;;;;;;;15.00;14.53;;;17.20;57.00;;;;;;5014289;28;20450;-43
2021/12/26 04:15:29;;;;;;;14.60;14.20;;;17.20;57.00;;;;;;5014260;28;20493;-43
2021/12/26 04:17:57;;;;;;;14.83;14.43;;;17.20;57.10;;;;;;5014447;28;20945;-43
2021/12/26 04:20:25;;;;;;;15.17;14.57;;;17.20;57.20;;;;;;5014419;28;20460;-43
2021/12/26 04:22:52;;;;;;;14.90;14.40;;;17.20;57.30;;;;;;5014263;28;20982;-43
2021/12/26 04:25:20;;;;;;;14.93;14.43;;;17.20;57.40;;;;;;5014250;28;20816;-43
2021/12/26 04:27:47;;;;;;;14.63;14.23;;;17.20;57.50;;;;;;5013275;28;20453;-43
2021/12/26 04:30:15;;;;;;;14.80;14.30;;;17.20;57.50;;;;;;5014102;28;20453;-44
2021/12/26 04:32:42;;;;;;;14.20;13.80;;;17.20;57.50;;;;;;5014110;28;20449;-43
2021/12/26 04:35:09;;;;;;;14.27;13.87;;;17.20;57.60;;;;;;5014020;28;20497;-43
2021/12/26 04:37:37;;;;;;;14.70;14.30;;;17.20;57.70;;;;;;5014065;28;20496;-43
2021/12/26 04:40:08;;;;;;;14.50;14.10;;;17.10;57.60;;;;;;5014042;28;20935;-43
2021/12/26 04:42:36;;;;;;;14.20;13.80;;;17.20;58.30;;;;;;5013850;28;20804;-43
2021/12/26 04:45:05;;;;;;;14.43;14.03;;;17.10;57.60;;;;;;5013849;28;20466;-43
2021/12/26 04:47:32;;;;;;;14.30;13.90;;;17.10;57.70;;;;;;5013658;28;20457;-44
2021/12/26 04:49:59;;;;;;;14.30;13.90;;;17.10;57.90;;;;;;5013903;28;20449;-43
2021/12/26 04:52:26;;;;;;;14.73;14.33;;;17.10;58.10;;;;;;5013790;28;20449;-43
2021/12/26 04:54:54;;;;;;;14.20;13.80;;;17.20;58.10;;;;;;5013650;28;20446;-43
2021/12/26 04:57:20;;;;;;;14.93;14.43;;;17.10;58.10;;;;;;5013493;28;20525;-44
2021/12/26 04:59:47;;;;;;;14.70;14.10;;;17.10;58.10;;;;;;5013649;28;20508;-43
2021/12/26 05:02:14;;;;;;;15.30;14.80;;;17.10;58.20;;;;;;5012974;28;20936;-43
2021/12/26 05:04:41;;;;;;;15.17;14.67;;;17.10;58.70;;;;;;5013339;28;20450;-44
2021/12/26 05:07:09;;;;;;;15.63;15.13;;;17.10;58.20;;;;;;5013549;28;20938;-43
2021/12/26 05:09:36;;;;;;;14.63;14.23;;;17.10;58.30;;;;;;5013260;28;20442;-43
2021/12/26 05:12:04;;;;;;;16.00;15.50;;;17.10;58.40;;;;;;5013446;28;20454;-43
2021/12/26 05:14:31;;;;;;;15.53;15.03;;;17.10;58.40;;;;;;5013471;28;20450;-43
2021/12/26 05:16:58;;;;;;;15.40;14.90;;;17.20;58.40;;;;;;5013126;28;20490;-43
2021/12/26 05:19:24;;;;;;;15.40;14.90;;;17.20;58.50;;;;;;5013257;28;20452;-43
2021/12/26 05:21:51;;;;;;;15.50;15.00;;;17.10;58.40;;;;;;5012957;28;20827;-43
2021/12/26 05:24:18;;;;;;;15.33;14.83;;;17.20;58.50;;;;;;5012911;28;20453;-43
2021/12/26 05:26:44;;;;;;;15.77;15.20;;;17.20;58.60;;;;;;5013042;28;20465;-43
2021/12/26 05:29:12;;;;;;;15.90;15.40;;;17.20;58.70;;;;;;5013135;28;20457;-43
2021/12/26 05:31:39;;;;;;;15.07;14.67;;;17.20;58.70;;;;;;5012954;28;20457;-44
2021/12/26 05:34:06;;;;;;;15.87;15.27;;;17.10;58.60;;;;;;5012802;28;20813;-43
2021/12/26 05:36:33;;;;;;;15.03;14.60;;;17.10;58.70;;;;;;5012927;28;20492;-43
2021/12/26 05:38:59;;;;;;;15.30;14.80;;;17.20;59.40;;;;;;5011923;28;20874;-43
2021/12/26 05:41:26;;;;;;;15.60;15.10;;;17.10;58.80;;;;;;5012994;28;20450;-44
2021/12/26 05:43:53;;;;;;;15.23;14.73;;;17.10;58.90;;;;;;5012547;28;20476;-43
2021/12/26 05:46:21;;;;;;;15.10;14.60;;;17.20;58.90;;;;;;5010183;28;20486;-43
2021/12/26 05:48:47;;;;;;;15.30;14.80;;;17.10;58.90;;;;;;5012863;28;20812;-43
2021/12/26 05:51:14;;;;;;;15.33;14.73;;;17.20;59.00;;;;;;5012721;28;20461;-43
2021/12/26 05:53:41;;;;;;;15.10;14.70;;;17.40;59.80;;;;;;5012309;28;20481;-43
2021/12/26 05:56:07;;;;;;;14.40;14.00;;;17.80;59.90;;;;;;5012417;28;20485;-44
2021/12/26 05:58:35;;;;;;;15.23;14.73;;;18.20;58.90;;;;;;5012537;28;20458;-43
2021/12/26 06:01:02;;;;;;;14.90;14.50;;;18.40;58.20;;;;;;5012624;28;20812;-43
2021/12/26 06:03:30;;;;;;;15.10;14.63;;;18.50;57.40;;;;;;5012074;28;20441;-44
2021/12/26 06:05:57;;;;;;;15.00;14.60;;;18.60;56.90;;;;;;5012229;28;20470;-43
2021/12/26 06:08:23;;;;;;;15.10;14.60;;;18.70;56.70;;;;;;5012362;28;20458;-43
2021/12/26 06:10:50;;;;;;;15.00;14.50;;;18.80;56.20;;;;;;5012286;28;20454;-43
2021/12/26 06:13:17;;;;;;;15.80;15.30;;;18.90;55.60;;;;;;5012110;28;20446;-43
2021/12/26 06:15:44;;;;;;;15.50;15.00;;;19.00;55.30;;;;;;5012020;28;20493;-43
2021/12/26 06:18:10;;;;;;;15.70;15.20;;;19.10;54.80;;;;;;5012211;28;20449;-44
2021/12/26 06:20:38;;;;;;;15.70;15.20;;;19.20;54.50;;;;;;5012276;28;20516;-43
2021/12/26 06:23:05;;;;;;;15.40;14.90;;;19.20;54.00;;;;;;5011996;28;20508;-43
2021/12/26 06:25:32;;;;;;;15.60;15.10;;;19.30;53.80;;;;;;5012035;28;20469;-44
2021/12/26 06:27:59;;;;;;;15.30;14.90;;;19.30;53.50;;;;;;5011553;28;20454;-44
2021/12/26 06:30:26;;;;;;;15.40;14.90;;;19.50;53.40;;;;;;5012052;28;20951;-44
2021/12/26 06:32:52;;;;;;;15.77;15.27;;;19.60;53.00;;;;;;5011832;28;20450;-44
2021/12/26 06:35:19;;;;;;;15.67;15.17;;;19.60;52.60;;;;;;5011862;28;20474;-43
2021/12/26 06:37:47;;;;;;;15.30;14.80;;;19.60;52.40;;;;;;5012119;28;20442;-43
2021/12/26 06:40:14;;;;;;;15.97;15.47;;;19.60;52.20;;;;;;5011631;28;20826;-43
2021/12/26 06:42:44;;;;;;;15.50;15.00;;;19.70;52.00;;;;;;5011665;28;20454;-43
2021/12/26 06:45:14;;;;;;;15.80;15.30;;;19.80;51.70;;;;;;5011784;28;20470;-45
2021/12/26 06:47:42;;;;;;;15.00;14.60;;;19.80;51.50;;;;;;5011850;28;20951;-43
2021/12/26 06:50:10;;;;;;;15.20;14.70;;;19.80;51.30;;;;;;5011674;28;20885;-43
2021/12/26 06:52:36;;;;;;;15.50;15.00;;;19.90;51.20;;;;;;5011210;28;20825;-43
2021/12/26 06:55:06;;;;;;;15.30;14.80;;;19.90;50.90;;;;;;5011548;28;20473;-43
2021/12/26 06:57:33;;;;;;;14.83;14.43;;;20.00;50.80;;;;;;5011636;28;20486;-43
2021/12/26 06:59:59;;;;;;;15.10;14.60;;;20.00;50.60;;;;;;5011475;28;20549;-43
2021/12/26 07:02:26;;;;;;;15.17;14.67;;;20.00;50.50;;;;;;5011268;28;20450;-44
2021/12/26 07:04:53;;;;;;;14.87;14.40;;;19.90;50.30;;;;;;5011466;28;20449;-44
2021/12/26 07:07:20;;;;;;;15.50;15.00;;;20.00;50.30;;;;;;5011679;28;20449;-43
2021/12/26 07:09:47;;;;;;;15.00;14.60;;;20.00;50.10;;;;;;5011351;28;20946;-43
2021/12/26 07:12:15;;;;;;;14.60;14.20;;;20.00;50.00;;;;;;5011414;28;20473;-43
2021/12/26 07:14:42;;;;;;;15.67;15.07;;;20.00;49.90;;;;;;5011608;28;20507;-44
2021/12/26 07:17:10;;;;;;;15.70;15.20;;;20.00;49.90;;;;;;5011485;28;21036;-54
2021/12/26 07:19:37;;;;;;;15.43;14.93;;;20.00;49.80;;;;;;5011674;28;20821;-46
2021/12/26 07:22:07;;;;;;;15.40;14.90;;;20.00;49.90;;;;;;5011107;28;20446;-50
2021/12/26 07:24:34;;;;;;;15.60;15.10;;;20.10;49.90;;;;;;5011452;28;20453;-50
2021/12/26 07:27:01;;;;;;;15.80;15.30;;;20.00;49.80;;;;;;5011621;28;20438;-46
2021/12/26 07:29:30;;;;;;;12.83;12.43;;;20.10;49.90;;;;;;5011713;28;20453;-46
2021/12/26 07:31:57;;;;;;;13.33;12.93;;;20.10;50.20;;;;;;5011437;28;20441;-48
2021/12/26 07:34:24;;;;;;;13.80;13.40;;;20.10;50.30;;;;;;5011158;28;20452;-50
2021/12/26 07:36:51;;;;;;;13.60;13.20;;;20.00;50.50;;;;;;5011215;28;20536;-53
2021/12/26 07:39:18;;;;;;;13.97;13.57;;;20.00;50.80;;;;;;5011499;28;20998;-50
2021/12/26 07:41:45;;;;;;;12.60;12.20;;;20.00;50.80;;;;;;5011330;28;20450;-48
2021/12/26 07:44:12;;;;;;;12.70;12.30;;;20.00;51.00;;;;;;5011175;28;20458;-50
2021/12/26 07:46:41;;;;;;;12.57;12.27;;;20.00;51.20;;;;;;5011220;28;20472;-48
2021/12/26 07:49:08;;;;;;;13.40;13.00;;;20.00;51.30;;;;;;5011399;28;20454;-48
2021/12/26 07:51:35;;;;;;;12.83;12.43;;;20.00;51.50;;;;;;5011236;28;20556;-46
2021/12/26 07:54:02;;;;;;;13.30;12.90;;;20.00;51.50;;;;;;5011284;28;20537;-46
2021/12/26 07:56:30;;;;;;;13.60;13.10;;;19.90;51.60;;;;;;5010921;28;20481;-47
2021/12/26 07:58:57;;;;;;;13.53;13.13;;;19.90;51.60;;;;;;5011105;28;20496;-50
2021/12/26 08:01:27;;;;;;;12.97;12.57;;;19.90;51.80;;;;;;5011774;28;20453;-48
2021/12/26 08:03:56;;;;;;;13.20;12.90;;;19.90;51.90;;;;;;5014955;28;20445;-48
2021/12/26 08:06:23;;;;;;;13.60;13.10;;;19.80;51.80;;;;;;5014976;28;20483;-46
2021/12/26 08:08:50;;;;;;;12.80;12.50;;;19.80;51.90;;;;;;5014419;28;20529;-46
2021/12/26 08:11:18;;;;;;;12.77;12.40;;;19.80;51.90;;;;;;5014621;28;20442;-48
2021/12/26 08:13:45;;;;;;;12.90;12.50;;;19.80;52.00;;;;;;5014235;28;20453;-46
2021/12/26 08:16:12;;;;;;;13.10;12.70;;;19.80;52.10;;;;;;5014421;28;20990;-47
2021/12/26 08:18:39;;;;;;;13.33;12.93;;;19.80;52.10;;;;;;5014360;28;20446;-45
2021/12/26 08:21:08;;;;;;;12.40;12.00;;;19.80;52.30;;;;;;5014134;28;20457;-47
2021/12/26 08:23:35;;;;;;;13.17;12.77;;;19.80;52.70;;;;;;5014154;28;20456;-50
2021/12/26 08:26:04;;;;;;;12.03;11.73;;;19.70;52.60;;;;;;5014215;28;20808;-47
2021/12/26 08:28:32;;;;;;;12.27;11.97;;;19.70;52.30;;;;;;5014248;28;20450;-45
2021/12/26 08:31:00;;;;;;;12.70;12.30;;;19.60;52.20;;;;;;5013235;28;20445;-45
2021/12/26 08:33:27;;;;;;;13.43;13.03;;;19.50;52.80;;;;;;5013940;28;20446;-45
2021/12/26 08:35:54;;;;;;;13.33;12.93;;;19.50;52.50;;;;;;5014110;28;20461;-52
2021/12/26 08:38:23;;;;;;;13.70;13.30;;;19.40;52.60;;;;;;5003566;28;20458;-49
2021/12/26 08:40:50;;;;;;;13.73;13.33;;;19.50;52.90;;;;;;5002196;28;20737;-46
2021/12/26 08:43:18;;;;;;;12.97;12.63;;;19.40;52.80;;;;;;5001971;28;20453;-45
2021/12/26 08:45:45;;;;;;;13.00;12.70;;;19.30;52.70;;;;;;5002229;28;20512;-48
2021/12/26 08:48:12;;;;;;;12.60;12.30;;;19.20;52.80;;;;;;5001909;28;20457;-52
2021/12/26 08:50:39;;;;;;;13.10;12.70;;;19.20;53.20;;;;;;5001676;28;20494;-48
2021/12/26 08:53:08;;;;;;;13.50;13.10;;;19.20;53.20;;;;;;5001671;28;20496;-45
2021/12/26 08:55:37;;;;;;;14.57;14.17;;;19.30;53.50;;;;;;5001877;28;20474;-54
2021/12/26 08:58:06;;;;;;;13.30;12.90;;;19.30;53.70;;;;;;5002004;28;20497;-48
2021/12/26 09:00:34;;;;;;;13.20;12.90;;;19.30;53.70;;;;;;5001765;28;20501;-49
2021/12/26 09:03:01;;;;;;;13.47;12.97;;;19.40;54.50;;;;;;5001423;28;20462;-51
2021/12/26 09:05:28;;;;;;;13.50;13.10;;;19.60;54.60;;;;;;5001317;28;20507;-47
2021/12/26 09:07:58;;;;;;;13.50;13.00;;;19.90;54.40;;;;;;5001420;28;20589;-49
2021/12/26 09:10:25;;;;;;;13.17;12.77;;;20.20;53.80;;;;;;5001613;28;20457;-52
2021/12/26 09:12:54;;;;;;;13.63;13.23;;;20.50;53.40;;;;;;5001145;28;20838;-45
2021/12/26 09:15:22;;;;;;;13.00;12.70;;;20.60;53.30;;;;;;5001168;28;20465;-50
2021/12/26 09:17:50;;;;;;;13.70;13.30;;;20.70;53.10;;;;;;5001233;28;20822;-46
2021/12/26 09:20:17;;;;;;;12.80;12.50;;;20.90;52.60;;;;;;5001163;28;20449;-47
2021/12/26 09:22:45;;;;;;;11.80;11.50;;;21.00;52.10;;;;;;5001029;28;20888;-48
2021/12/26 09:25:12;;;;;;;13.13;12.77;;;21.20;51.80;;;;;;5001015;28;20478;-48
2021/12/26 09:27:39;;;;;;;12.45;12.15;;;21.30;51.30;;;;;;5000754;28;20866;-51
2021/12/26 09:30:11;;;;;;;13.83;13.33;;;21.40;51.10;;;;;;5001194;28;20211;-48
2021/12/26 09:32:38;;;;;;;13.63;13.23;;;21.60;50.60;;;;;;5000882;28;20450;-53
2021/12/26 09:35:07;;;;;;;14.03;13.53;;;21.70;50.20;;;;;;4998202;28;20477;-48
2021/12/26 09:37:35;;;;;;;14.27;13.87;;;21.80;50.10;;;;;;4999074;28;20482;-46
2021/12/26 09:40:04;;;;;;;13.10;12.70;;;22.00;49.90;;;;;;5000749;28;20451;-49
2021/12/26 09:42:33;;;;;;;11.15;10.85;;;22.10;49.50;;;;;;4999187;28;20513;-51
2021/12/26 09:45:01;;;;;;;12.70;12.30;;;22.30;49.30;;;;;;4983012;28;20327;-47
2021/12/26 09:47:30;;;;;;;12.30;12.00;;;22.50;48.70;;;;;;4994615;28;20505;-52
2021/12/26 09:49:58;;;;;;;13.23;12.83;;;22.70;48.20;;;;;;5000713;28;20442;-49
2021/12/26 09:52:26;;;;;;;13.47;13.07;;;22.70;47.90;;;;;;5000170;28;20887;-49
2021/12/26 09:54:53;;;;;;;12.50;12.20;;;22.80;47.60;;;;;;5000829;28;20457;-50
2021/12/26 09:57:21;;;;;;;12.67;12.27;;;22.90;47.40;;;;;;4994479;28;20489;-48
2021/12/26 09:59:48;;;;;;;12.70;12.30;;;22.90;47.20;;;;;;4998045;28;20454;-49
2021/12/26 10:02:18;;;;;;;12.43;12.10;;;23.00;47.20;;;;;;5000655;28;20556;-51
2021/12/26 10:04:48;;;;;;;13.53;13.03;;;23.20;47.10;;;;;;5000804;28;20445;-52
2021/12/26 10:07:17;;;;;;;12.20;11.90;;;23.30;46.80;;;;;;5000480;28;20450;-51
2021/12/26 10:09:46;;;;;;;12.90;12.50;;;23.50;46.50;;;;;;5000509;28;20454;-50
2021/12/26 10:12:14;;;;;;;13.30;12.90;;;23.50;46.10;;;;;;4999879;28;20454;-49
2021/12/26 10:14:43;;;;;;;12.70;12.37;;;23.70;45.90;;;;;;5000196;28;20391;-50
2021/12/26 10:17:12;;;;;;;12.23;11.93;;;23.70;45.50;;;;;;5000139;28;20490;-50
2021/12/26 10:19:41;;;;;;;12.83;12.43;;;23.80;45.40;;;;;;5000129;28;20936;-52
2021/12/26 10:22:10;;;;;;;12.70;12.40;;;23.80;45.80;;;;;;4999317;28;21280;-50
2021/12/26 10:24:39;;;;;;;11.65;11.35;;;23.90;45.10;;;;;;4998086;28;20817;-48
2021/12/26 10:27:09;;;;;;;13.60;13.20;;;24.20;45.00;;;;;;4997201;28;20195;-50
2021/12/26 10:29:39;;;;;;;13.67;13.27;;;24.40;44.50;;;;;;4999512;28;20460;-51
2021/12/26 10:32:10;;;;;;;12.97;12.67;;;24.50;44.10;;;;;;4999968;28;20910;-50
2021/12/26 10:34:42;;;;;;;13.60;13.20;;;24.50;43.80;;;;;;4999762;28;20456;-51
2021/12/26 10:37:14;;;;;;;14.30;13.90;;;24.60;43.80;;;;;;4994784;28;20477;-54
2021/12/26 10:39:44;;;;;;;13.47;13.07;;;24.60;43.60;;;;;;4999614;28;20453;-49
2021/12/26 10:42:16;;;;;;;13.57;13.17;;;24.60;43.40;;;;;;4999229;28;20803;-53
2021/12/26 10:44:46;;;;;;;13.90;13.50;;;24.60;43.40;;;;;;4999868;28;20472;-52
2021/12/26 10:47:16;;;;;;;14.43;14.00;;;24.80;43.60;;;;;;4999519;28;21054;-51
2021/12/26 10:49:51;;;;;;;13.07;12.67;;;24.90;43.30;;;;;;4999898;28;20456;-51
2021/12/26 10:52:23;;;;;;;13.43;13.03;;;25.00;43.00;;;;;;4999201;28;20453;-52
2021/12/26 10:54:53;;;;;;;13.03;12.73;;;25.10;42.80;;;;;;4999460;28;20569;-53
2021/12/26 10:57:24;;;;;;;13.20;12.80;;;25.20;42.70;;;;;;4999813;28;20486;-52
2021/12/26 11:00:15;;;;;;;13.00;12.70;;;25.20;42.50;;;;;;4999679;28;20457;-47
2021/12/26 11:02:45;;;;;;;13.23;12.77;;;25.20;42.30;;;;;;4999438;28;20805;-49
2021/12/26 11:05:14;;;;;;;12.00;11.60;;;25.30;42.20;;;;;;4998822;28;20461;-48
2021/12/26 11:07:47;;;;;;;13.13;12.73;;;25.30;42.10;;;;;;4999752;28;20657;-49
2021/12/26 11:10:18;;;;;;;11.00;10.70;;;25.40;42.00;;;;;;4999008;28;20912;-53
2021/12/26 11:12:49;;;;;;;12.90;12.40;;;25.60;41.90;;;;;;4999462;28;20719;-45
2021/12/26 11:15:18;;;;;;;11.50;11.20;;;25.70;41.50;;;;;;4999518;28;20477;-45
2021/12/26 11:17:49;;;;;;;12.80;12.50;;;25.70;41.20;;;;;;4999228;28;20873;-44
2021/12/26 11:20:36;;;;;;;13.00;12.63;;;25.70;41.00;;;;;;4999634;28;20454;-48
2021/12/26 11:23:10;;;;;;;13.40;13.00;;;25.70;41.30;;;;;;4999231;28;20450;-52
2021/12/26 11:25:40;;;;;;;13.40;13.00;;;25.70;41.60;;;;;;4999401;28;20484;-49
2021/12/26 11:28:08;;;;;;;14.10;13.17;;;25.70;41.50;;;;;;4998925;28;21035;-49
2021/12/26 11:30:36;;;;;;;14.13;13.50;;;25.70;41.60;;;;;;4999562;28;20442;-50
2021/12/26 11:33:04;;;;;;;13.57;13.17;;;25.70;41.90;;;;;;4994818;28;20446;-48
2021/12/26 11:35:32;;;;;;;13.60;13.20;;;25.80;42.00;;;;;;4997471;28;20469;-48
2021/12/26 11:38:01;;;;;;;14.97;14.10;;;25.90;42.30;;;;;;5001932;28;20489;-46
2021/12/26 11:40:31;;;;;;;14.10;13.60;;;26.00;42.40;;;;;;5002862;28;21051;-51
2021/12/26 11:43:33;;;;;;;14.10;13.70;;;26.00;42.30;;;;;;5002834;28;21011;-51
2021/12/26 11:46:10;;;;;;;13.60;13.20;;;26.00;42.30;;;;;;4989705;28;20773;-50
2021/12/26 11:49:07;;;;;;;13.80;13.30;;;26.10;42.20;;;;;;5003299;28;20855;-48
2021/12/26 11:51:57;;;;;;;13.73;13.33;;;26.10;42.10;;;;;;4982385;28;20458;-48
2021/12/26 11:54:44;;;;;;;12.93;12.53;;;26.20;42.20;;;;;;4988618;28;20454;-50
2021/12/26 11:57:32;;;;;;;14.87;14.27;;;26.30;42.20;;;;;;5002931;28;20450;-53
2021/12/26 12:00:09;;;;;;;12.00;11.60;;;26.40;42.10;;;;;;5001584;28;20449;-49
2021/12/26 12:02:42;;;;;;;14.30;13.60;;;26.60;41.70;;;;;;5002336;28;20203;-46
2021/12/26 12:05:17;;;;;;;12.70;12.30;;;26.60;41.50;;;;;;5001697;28;20450;-49
2021/12/26 12:08:00;;;;;;;13.83;13.43;;;26.70;41.60;;;;;;5002772;28;20191;-50
2021/12/26 12:10:41;;;;;;;14.20;13.70;;;26.60;41.40;;;;;;5000079;28;20470;-46
2021/12/26 12:13:12;;;;;;;15.40;14.90;;;26.60;41.30;;;;;;5002288;28;20480;-52
2021/12/26 12:15:49;;;;;;;15.17;14.37;;;26.70;41.60;;;;;;5002545;28;20473;-49
2021/12/26 12:18:22;;;;;;;15.20;14.60;;;26.80;41.60;;;;;;5002833;28;20575;-53
2021/12/26 12:21:11;;;;;;;14.37;13.57;;;26.70;40.60;;;;;;5002605;28;20450;-52
2021/12/26 12:23:56;;;;;;;14.83;14.33;;;26.70;40.80;;;;;;5002115;28;20521;-46
2021/12/26 12:26:42;;;;;;;15.03;14.47;;;26.70;41.10;;;;;;5002249;28;20497;-53
2021/12/26 12:29:13;;;;;;;15.03;14.40;;;26.60;41.10;;;;;;4984391;28;20846;-47
2021/12/26 12:31:41;;;;;;;14.00;13.37;;;26.60;41.50;;;;;;5001750;28;20450;-49
2021/12/26 12:34:10;;;;;;;14.17;13.67;;;26.60;41.70;;;;;;5002115;28;20449;-50
2021/12/26 12:36:40;;;;;;;14.47;13.87;;;26.50;41.70;;;;;;5001951;28;20477;-48
2021/12/26 12:39:14;;;;;;;15.90;14.17;;;26.60;41.80;;;;;;5002089;28;20492;-48